Time;durP1;ratioP1;P1;durP2;ratioP2;P2;SDS_P1;SDS_P2;PMS_P1;PMS_P2;Temp;Humidity;BMP_temperature;BMP_pressure;BME280_temperature;BME280_humidity;BME280_pressure;Samples;Min_cycle;Max_cycle;Signal;HPM_P1;HPM_P2
2024/03/16 00:01:37;;;;;;;5.82;2.47;;;17.10;56.80;;;;;;6305332;28;20020;-77
2024/03/16 00:04:41;;;;;;;5.78;2.85;;;17.10;57.20;;;;;;6310253;28;20436;-75
2024/03/16 00:07:43;;;;;;;4.18;2.03;;;17.10;57.30;;;;;;6291708;28;20020;-75
2024/03/16 00:10:44;;;;;;;4.25;2.35;;;17.10;57.40;;;;;;6276994;28;20043;-77
2024/03/16 00:14:01;;;;;;;3.20;2.42;;;17.10;57.40;;;;;;6291562;28;20020;-76
2024/03/16 00:17:03;;;;;;;5.78;2.63;;;17.10;57.40;;;;;;6290789;28;20534;-76
2024/03/16 00:20:07;;;;;;;5.00;2.63;;;17.10;57.30;;;;;;6307891;28;20118;-75
2024/03/16 00:23:08;;;;;;;4.03;2.17;;;17.20;57.20;;;;;;6283534;28;20021;-75
2024/03/16 00:26:11;;;;;;;5.30;2.90;;;17.20;57.10;;;;;;6290579;28;20067;-77
2024/03/16 00:29:15;;;;;;;6.55;2.55;;;17.40;57.10;;;;;;6309568;28;20032;-76
2024/03/16 00:32:16;;;;;;;8.32;2.88;;;17.20;56.90;;;;;;6289368;28;20097;-77
2024/03/16 00:35:17;;;;;;;5.15;2.53;;;17.20;57.00;;;;;;6308440;28;20456;-76
2024/03/16 00:38:18;;;;;;;5.03;2.70;;;17.30;57.00;;;;;;6279114;28;20093;-77
2024/03/16 00:41:20;;;;;;;10.13;2.40;;;17.30;57.00;;;;;;6294525;28;20380;-77
2024/03/16 00:44:21;;;;;;;5.32;2.70;;;17.30;57.10;;;;;;6305571;28;20051;-76
2024/03/16 00:47:21;;;;;;;4.13;2.55;;;17.20;57.20;;;;;;6304935;28;20533;-74
2024/03/16 00:50:22;;;;;;;7.22;2.92;;;17.20;57.30;;;;;;6291049;28;20139;-77
2024/03/16 00:53:23;;;;;;;6.82;3.10;;;17.20;57.90;;;;;;6308022;28;20126;-77
2024/03/16 00:56:24;;;;;;;7.38;3.00;;;17.20;57.20;;;;;;6291016;28;20463;-77
2024/03/16 00:59:25;;;;;;;11.05;3.03;;;17.20;57.10;;;;;;6307310;28;20016;-77
2024/03/16 01:02:27;;;;;;;8.80;2.40;;;17.30;57.00;;;;;;6306920;28;20897;-77
2024/03/16 01:05:28;;;;;;;5.32;2.17;;;17.30;56.90;;;;;;6289969;28;20035;-76
2024/03/16 01:08:30;;;;;;;4.65;2.25;;;17.30;56.80;;;;;;6290137;28;20127;-77
2024/03/16 01:11:32;;;;;;;4.10;2.00;;;17.30;56.70;;;;;;6273240;28;20035;-77
2024/03/16 01:14:33;;;;;;;4.18;2.03;;;17.40;56.70;;;;;;6306595;28;20023;-77
2024/03/16 01:17:34;;;;;;;6.57;2.03;;;17.20;56.50;;;;;;6308534;28;20016;-76
2024/03/16 01:20:34;;;;;;;6.10;2.30;;;17.20;56.50;;;;;;6306541;28;20099;-76
2024/03/16 01:23:36;;;;;;;5.05;1.75;;;17.20;56.50;;;;;;6289638;28;20020;-77
2024/03/16 01:26:36;;;;;;;6.70;2.00;;;17.20;56.60;;;;;;6289864;28;20035;-76
2024/03/16 01:29:38;;;;;;;2.13;1.80;;;17.10;56.60;;;;;;6308487;28;20028;-74
2024/03/16 01:32:41;;;;;;;7.55;1.95;;;17.00;56.80;;;;;;6306029;28;20035;-76
2024/03/16 01:35:42;;;;;;;5.20;2.20;;;16.80;56.80;;;;;;6289372;28;20468;-76
2024/03/16 01:38:44;;;;;;;12.05;2.50;;;16.90;57.10;;;;;;6307254;28;20039;-75
2024/03/16 01:41:45;;;;;;;8.52;2.50;;;16.80;57.10;;;;;;6289222;28;20032;-78
2024/03/16 01:45:07;;;;;;;4.25;2.03;;;16.80;57.20;;;;;;6306679;28;20373;-76
2024/03/16 01:48:11;;;;;;;6.10;2.97;;;16.80;57.40;;;;;;6298141;28;20147;-75
2024/03/16 01:51:13;;;;;;;6.57;3.03;;;16.80;57.30;;;;;;6306320;28;20032;-76
2024/03/16 01:54:14;;;;;;;7.95;2.55;;;16.80;57.30;;;;;;6307987;28;20016;-77
2024/03/16 01:57:15;;;;;;;3.85;1.98;;;16.80;57.40;;;;;;6307335;28;20077;-77
2024/03/16 02:00:17;;;;;;;4.75;2.65;;;16.80;57.30;;;;;;6306297;28;20396;-77
2024/03/16 02:03:18;;;;;;;6.00;2.78;;;16.80;57.30;;;;;;6307934;28;20023;-76
2024/03/16 02:06:19;;;;;;;9.27;3.10;;;16.80;57.30;;;;;;6288903;28;20036;-76
2024/03/16 02:09:20;;;;;;;4.22;2.08;;;16.90;57.30;;;;;;6287858;28;20020;-77
2024/03/16 02:12:22;;;;;;;7.00;2.70;;;16.90;57.20;;;;;;6305746;28;20020;-77
2024/03/16 02:15:24;;;;;;;5.63;3.17;;;17.00;57.20;;;;;;6307684;28;20021;-76
2024/03/16 02:18:25;;;;;;;8.63;2.15;;;17.00;57.20;;;;;;6306689;28;20398;-77
2024/03/16 02:21:26;;;;;;;3.28;2.40;;;17.00;57.30;;;;;;6305820;28;20122;-76
2024/03/16 02:24:27;;;;;;;4.70;2.58;;;17.10;57.50;;;;;;6305758;28;20090;-76
2024/03/16 02:27:28;;;;;;;6.22;2.67;;;17.10;57.50;;;;;;6307489;28;20024;-76
2024/03/16 02:30:28;;;;;;;4.22;3.05;;;17.10;57.50;;;;;;6288896;28;20138;-76
2024/03/16 02:33:29;;;;;;;4.63;2.42;;;17.00;57.40;;;;;;6293018;28;20059;-76
2024/03/16 02:36:30;;;;;;;7.93;2.78;;;17.10;58.10;;;;;;6305116;28;20024;-76
2024/03/16 02:39:32;;;;;;;8.40;2.67;;;17.10;57.80;;;;;;6302138;28;20024;-77
2024/03/16 02:42:35;;;;;;;5.72;2.72;;;17.00;57.80;;;;;;6305424;28;20065;-77
2024/03/16 02:45:35;;;;;;;10.68;3.17;;;17.00;57.90;;;;;;6302552;28;20071;-76
2024/03/16 02:48:36;;;;;;;5.18;2.50;;;16.90;58.00;;;;;;6304124;28;20175;-75
2024/03/16 02:51:38;;;;;;;5.95;2.30;;;16.80;58.20;;;;;;6305906;28;20115;-76
2024/03/16 02:54:39;;;;;;;5.45;2.78;;;16.80;58.50;;;;;;6308255;28;20060;-76
2024/03/16 02:57:40;;;;;;;4.45;2.88;;;16.80;58.80;;;;;;6311900;28;20078;-77
2024/03/16 03:00:42;;;;;;;7.22;3.03;;;16.70;59.00;;;;;;6299107;28;20038;-76
2024/03/16 03:03:43;;;;;;;8.13;2.72;;;16.70;59.20;;;;;;6296281;28;20064;-76
2024/03/16 03:06:44;;;;;;;7.38;2.92;;;16.70;59.30;;;;;;6293782;28;20460;-76
2024/03/16 03:09:47;;;;;;;4.85;2.35;;;16.70;59.40;;;;;;6312329;28;20024;-77
2024/03/16 03:12:49;;;;;;;5.78;2.90;;;16.70;59.50;;;;;;6309304;28;20030;-75
2024/03/16 03:15:50;;;;;;;5.35;2.83;;;16.70;59.60;;;;;;6312107;28;20008;-74
2024/03/16 03:18:51;;;;;;;6.68;2.35;;;16.70;59.60;;;;;;6309826;28;20016;-77
2024/03/16 03:21:52;;;;;;;4.28;2.63;;;16.70;59.80;;;;;;6285350;28;20025;-76
2024/03/16 03:24:54;;;;;;;5.15;2.72;;;16.60;60.10;;;;;;6304738;28;20012;-77
2024/03/16 03:27:55;;;;;;;9.73;2.38;;;16.50;60.40;;;;;;6293030;28;20031;-76
2024/03/16 03:30:56;;;;;;;4.80;2.53;;;16.40;60.60;;;;;;6309507;28;20047;-76
2024/03/16 03:33:57;;;;;;;3.83;2.67;;;16.40;60.80;;;;;;6309589;28;20027;-76
2024/03/16 03:36:58;;;;;;;5.63;2.38;;;16.40;60.90;;;;;;6309146;28;20536;-76
2024/03/16 03:39:59;;;;;;;5.60;2.20;;;16.30;60.90;;;;;;6309342;28;20111;-76
2024/03/16 03:43:00;;;;;;;7.70;2.10;;;16.30;60.90;;;;;;6299351;28;20072;-77
2024/03/16 03:46:29;;;;;;;5.63;2.08;;;16.30;61.80;;;;;;6306746;28;20111;-76
2024/03/16 03:49:32;;;;;;;5.07;2.25;;;16.30;61.00;;;;;;6302134;28;20038;-76
2024/03/16 03:52:33;;;;;;;4.03;2.17;;;16.30;61.10;;;;;;6292476;28;20024;-76
2024/03/16 03:55:34;;;;;;;7.97;2.00;;;16.30;61.20;;;;;;6308757;28;20158;-77
2024/03/16 03:58:38;;;;;;;3.55;1.92;;;16.30;61.30;;;;;;6309696;28;20024;-76
2024/03/16 04:01:39;;;;;;;5.70;2.10;;;16.30;61.50;;;;;;6309117;28;20350;-77
2024/03/16 04:04:42;;;;;;;3.63;2.10;;;16.30;61.60;;;;;;6280978;28;20028;-76
2024/03/16 04:07:43;;;;;;;7.93;2.13;;;16.30;61.60;;;;;;6296340;28;20062;-76
2024/03/16 04:10:44;;;;;;;4.72;1.98;;;16.20;61.60;;;;;;6308506;28;20515;-76
2024/03/16 04:13:45;;;;;;;7.05;2.25;;;16.20;61.80;;;;;;6290903;28;20040;-76
2024/03/16 04:16:48;;;;;;;2.83;1.83;;;16.20;61.90;;;;;;6305774;28;20111;-76
2024/03/16 04:19:49;;;;;;;13.90;2.72;;;16.20;61.90;;;;;;6309685;28;20032;-76
2024/03/16 04:22:51;;;;;;;5.05;2.10;;;16.10;62.70;;;;;;6308312;28;20035;-76
2024/03/16 04:25:52;;;;;;;4.40;2.10;;;16.20;61.90;;;;;;6308890;28;20420;-76
2024/03/16 04:28:53;;;;;;;3.55;2.00;;;16.20;62.00;;;;;;6307899;28;20456;-76
2024/03/16 04:31:55;;;;;;;4.47;2.30;;;16.10;62.00;;;;;;6309527;28;20128;-77
2024/03/16 04:34:56;;;;;;;3.35;2.05;;;16.10;62.00;;;;;;6307755;28;20493;-76
2024/03/16 04:37:57;;;;;;;3.45;2.05;;;16.10;62.20;;;;;;6290074;28;20054;-76
2024/03/16 04:40:59;;;;;;;4.03;2.00;;;16.10;62.40;;;;;;6282610;28;20650;-75
2024/03/16 04:44:03;;;;;;;6.47;2.08;;;16.10;62.50;;;;;;6290442;28;20028;-77
2024/03/16 04:47:05;;;;;;;3.10;2.58;;;16.10;62.60;;;;;;6290673;28;20536;-76
2024/03/16 04:50:07;;;;;;;2.95;2.05;;;16.10;62.60;;;;;;6307571;28;20097;-76
2024/03/16 04:53:08;;;;;;;5.53;2.25;;;16.20;62.80;;;;;;6310013;28;20019;-75
2024/03/16 04:56:09;;;;;;;3.95;2.03;;;16.10;62.80;;;;;;6290805;28;20095;-75
2024/03/16 04:59:11;;;;;;;2.92;1.92;;;16.00;62.80;;;;;;6307207;28;20027;-76
2024/03/16 05:02:14;;;;;;;4.15;2.15;;;16.00;62.70;;;;;;6291092;28;20123;-75
2024/03/16 05:05:15;;;;;;;3.88;2.30;;;16.00;62.80;;;;;;6306922;28;20051;-75
2024/03/16 05:08:15;;;;;;;6.47;2.75;;;16.00;62.90;;;;;;6307341;28;20027;-77
2024/03/16 05:11:17;;;;;;;5.50;2.20;;;16.10;63.00;;;;;;6308106;28;20058;-77
2024/03/16 05:14:18;;;;;;;5.65;2.30;;;16.10;62.90;;;;;;6290628;28;20709;-76
2024/03/16 05:17:19;;;;;;;2.88;1.92;;;16.10;62.90;;;;;;6308100;28;20048;-77
2024/03/16 05:20:21;;;;;;;5.32;2.30;;;16.10;63.20;;;;;;6306020;28;20131;-76
2024/03/16 05:23:22;;;;;;;3.88;2.22;;;16.10;63.20;;;;;;6281767;28;20140;-76
2024/03/16 05:26:23;;;;;;;2.25;1.45;;;16.10;63.40;;;;;;6300858;28;20031;-76
2024/03/16 05:29:25;;;;;;;4.38;2.35;;;16.00;63.40;;;;;;6304514;28;20852;-76
2024/03/16 05:32:28;;;;;;;5.85;2.58;;;16.00;63.50;;;;;;6305356;28;20085;-76
2024/03/16 05:35:29;;;;;;;3.35;2.30;;;15.90;63.90;;;;;;6322822;28;20032;-76
2024/03/16 05:38:32;;;;;;;3.72;2.47;;;15.90;64.20;;;;;;6305594;28;20052;-77
2024/03/16 05:41:33;;;;;;;5.38;2.55;;;15.80;64.50;;;;;;6308183;28;20016;-76
2024/03/16 05:44:34;;;;;;;6.70;2.45;;;15.80;64.80;;;;;;6289561;28;20035;-76
2024/03/16 05:47:34;;;;;;;4.30;2.28;;;15.80;65.10;;;;;;6306299;28;20114;-77
2024/03/16 05:50:35;;;;;;;4.18;2.28;;;15.80;65.10;;;;;;6305840;28;20062;-76
2024/03/16 05:53:36;;;;;;;3.67;2.28;;;15.80;65.10;;;;;;6308035;28;20136;-76
2024/03/16 05:56:40;;;;;;;4.75;2.30;;;15.80;65.10;;;;;;6306040;28;20024;-76
2024/03/16 05:59:42;;;;;;;3.22;2.33;;;15.80;65.10;;;;;;6306135;28;20038;-76
2024/03/16 06:02:42;;;;;;;4.47;2.38;;;15.80;65.10;;;;;;6297520;28;20500;-76
2024/03/16 06:05:45;;;;;;;4.68;2.58;;;15.80;65.10;;;;;;6299648;28;20035;-76
2024/03/16 06:08:47;;;;;;;6.35;3.10;;;15.90;65.10;;;;;;6308049;28;20040;-76
2024/03/16 06:11:50;;;;;;;8.23;3.40;;;15.80;65.20;;;;;;6306131;28;20661;-75
2024/03/16 06:14:51;;;;;;;5.15;3.10;;;15.80;65.30;;;;;;6289652;28;20035;-75
2024/03/16 06:17:52;;;;;;;6.60;2.60;;;15.90;65.50;;;;;;6306279;28;20103;-76
2024/03/16 06:20:53;;;;;;;3.80;2.70;;;15.90;65.40;;;;;;6306351;28;20170;-76
2024/03/16 06:23:55;;;;;;;6.55;3.10;;;16.00;65.40;;;;;;6306040;28;20031;-76
2024/03/16 06:27:03;;;;;;;4.63;3.00;;;16.00;65.20;;;;;;6306009;28;20028;-77
2024/03/16 06:30:07;;;;;;;4.93;3.17;;;16.00;65.00;;;;;;6311440;28;20103;-76
2024/03/16 06:33:11;;;;;;;10.70;4.03;;;16.00;64.90;;;;;;6310588;28;20043;-76
2024/03/16 06:36:12;;;;;;;4.95;3.20;;;16.10;64.90;;;;;;6310546;28;20070;-77
2024/03/16 06:39:14;;;;;;;10.13;4.57;;;16.10;64.90;;;;;;6311582;28;20020;-76
2024/03/16 06:42:15;;;;;;;9.10;4.65;;;16.10;64.80;;;;;;6311579;28;20107;-77
2024/03/16 06:45:17;;;;;;;7.60;3.65;;;16.10;64.70;;;;;;6307724;28;20043;-76
2024/03/16 06:48:18;;;;;;;8.40;4.00;;;16.20;64.70;;;;;;6311168;28;20103;-74
2024/03/16 06:51:18;;;;;;;5.28;3.03;;;16.20;64.70;;;;;;6294378;28;20460;-75
2024/03/16 06:54:19;;;;;;;6.22;3.47;;;16.30;64.70;;;;;;6306647;28;20051;-77
2024/03/16 06:57:21;;;;;;;4.90;3.05;;;16.40;64.60;;;;;;6310743;28;20028;-77
2024/03/16 07:00:25;;;;;;;5.07;3.70;;;16.40;64.50;;;;;;6311550;28;20020;-76
2024/03/16 07:03:27;;;;;;;9.20;3.28;;;16.50;64.40;;;;;;6293329;28;20035;-77
2024/03/16 07:06:28;;;;;;;4.35;2.80;;;16.60;64.30;;;;;;6310551;28;20131;-76
2024/03/16 07:09:30;;;;;;;5.32;2.80;;;16.60;64.00;;;;;;6312045;28;20097;-76
2024/03/16 07:12:32;;;;;;;6.47;3.10;;;16.70;63.90;;;;;;6292713;28;20540;-77
2024/03/16 07:15:35;;;;;;;9.57;3.10;;;16.70;63.70;;;;;;6310247;28;20078;-75
2024/03/16 07:18:37;;;;;;;5.72;3.15;;;16.80;63.50;;;;;;6309921;28;20020;-76
2024/03/16 07:21:39;;;;;;;8.73;3.72;;;16.80;63.40;;;;;;6292975;28;20128;-77
2024/03/16 07:24:40;;;;;;;8.27;4.38;;;16.80;63.40;;;;;;6312010;28;20016;-74
2024/03/16 07:27:41;;;;;;;6.57;3.70;;;16.80;63.40;;;;;;6309601;28;20051;-76
2024/03/16 07:30:42;;;;;;;11.50;5.10;;;16.90;63.40;;;;;;6306582;28;20032;-76
2024/03/16 07:33:44;;;;;;;12.57;5.28;;;16.90;63.50;;;;;;6292328;28;20088;-76
2024/03/16 07:36:45;;;;;;;6.85;3.70;;;16.90;63.40;;;;;;6292557;28;20031;-77
2024/03/16 07:39:46;;;;;;;8.48;3.92;;;17.00;63.40;;;;;;6310944;28;20424;-78
2024/03/16 07:42:47;;;;;;;7.35;3.83;;;17.10;63.40;;;;;;6311203;28;20024;-76
2024/03/16 07:45:51;;;;;;;9.88;4.30;;;17.00;63.20;;;;;;6292452;28;20431;-76
2024/03/16 07:48:53;;;;;;;6.72;3.38;;;17.00;63.20;;;;;;6293397;28;20040;-76
2024/03/16 07:51:55;;;;;;;6.55;3.55;;;16.90;63.30;;;;;;6311257;28;20031;-77
2024/03/16 07:54:56;;;;;;;8.00;3.47;;;16.90;63.50;;;;;;6309597;28;20020;-76
2024/03/16 07:57:57;;;;;;;13.05;3.47;;;16.90;63.50;;;;;;6309173;28;20024;-76
2024/03/16 08:00:58;;;;;;;5.40;2.30;;;16.90;63.40;;;;;;6291333;28;20027;-75
2024/03/16 08:04:00;;;;;;;4.20;2.50;;;17.00;63.40;;;;;;6283498;28;20037;-76
2024/03/16 08:07:02;;;;;;;4.20;2.50;;;17.00;63.30;;;;;;6276448;28;20020;-77
2024/03/16 08:10:04;;;;;;;3.92;2.22;;;17.00;63.20;;;;;;6309018;28;20032;-77
2024/03/16 08:13:07;;;;;;;4.15;2.60;;;17.00;63.20;;;;;;6308197;28;20032;-77
2024/03/16 08:16:09;;;;;;;4.35;2.25;;;17.00;63.20;;;;;;6308515;28;20017;-77
2024/03/16 08:19:15;;;;;;;3.90;2.38;;;16.90;63.20;;;;;;6275414;28;20123;-76
2024/03/16 08:22:15;;;;;;;5.75;2.35;;;16.80;63.30;;;;;;6310198;28;20071;-76
2024/03/16 08:25:17;;;;;;;2.17;1.92;;;16.80;63.60;;;;;;6317238;28;20027;-76
2024/03/16 08:28:18;;;;;;;3.75;2.05;;;16.70;63.70;;;;;;6304820;28;20028;-76
2024/03/16 08:31:19;;;;;;;2.58;1.83;;;16.70;63.70;;;;;;6308422;28;20032;-76
2024/03/16 08:34:21;;;;;;;3.35;1.70;;;16.70;63.70;;;;;;6308370;28;20037;-77
2024/03/16 08:37:23;;;;;;;10.93;2.40;;;16.70;63.60;;;;;;6292008;28;20498;-77
2024/03/16 08:40:24;;;;;;;9.23;1.98;;;16.80;63.50;;;;;;6308870;28;20042;-77
2024/03/16 08:43:25;;;;;;;4.40;1.90;;;16.80;63.40;;;;;;6275313;28;20036;-76
2024/03/16 08:46:26;;;;;;;2.03;1.27;;;16.90;63.20;;;;;;6308298;28;20070;-77
2024/03/16 08:49:27;;;;;;;2.97;1.50;;;17.10;63.00;;;;;;6294035;28;20025;-77
2024/03/16 08:52:29;;;;;;;2.50;1.35;;;17.30;62.40;;;;;;6291335;28;20097;-77
2024/03/16 08:55:30;;;;;;;1.42;1.13;;;17.40;61.50;;;;;;6289515;28;20110;-77
2024/03/16 08:58:31;;;;;;;3.28;1.42;;;17.50;60.90;;;;;;6305894;28;20438;-77
2024/03/16 09:01:32;;;;;;;5.30;1.60;;;17.60;60.80;;;;;;6301060;28;20103;-77
2024/03/16 09:04:32;;;;;;;3.30;1.77;;;17.80;60.50;;;;;;6307184;28;20024;-80
2024/03/16 09:07:40;;;;;;;6.70;1.83;;;17.90;60.00;;;;;;6307296;28;20129;-77
2024/03/16 09:10:41;;;;;;;1.90;1.55;;;18.00;59.60;;;;;;6290613;28;20059;-76
2024/03/16 09:13:42;;;;;;;1.65;1.20;;;18.10;59.50;;;;;;6309380;28;20020;-77
2024/03/16 09:16:44;;;;;;;6.78;2.15;;;18.20;59.10;;;;;;6309351;28;20047;-75
2024/03/16 09:19:47;;;;;;;5.15;1.20;;;18.40;58.90;;;;;;6314379;28;20035;-78
2024/03/16 09:22:49;;;;;;;5.43;1.80;;;18.50;58.40;;;;;;6307742;28;20416;-77
2024/03/16 09:25:57;;;;;;;6.07;1.90;;;18.70;57.80;;;;;;6307442;28;20024;-77
2024/03/16 09:28:58;;;;;;;6.00;1.90;;;18.90;57.80;;;;;;6290227;28;20052;-78
2024/03/16 09:31:59;;;;;;;1.73;0.90;;;19.00;57.10;;;;;;6306544;28;20028;-78
2024/03/16 09:35:00;;;;;;;3.00;1.08;;;19.20;56.30;;;;;;6307159;28;20020;-78
2024/03/16 09:38:01;;;;;;;1.83;1.17;;;19.40;54.60;;;;;;6308737;28;20035;-78
2024/03/16 09:41:02;;;;;;;0.80;0.60;;;19.70;54.40;;;;;;6289671;28;20028;-77
2024/03/16 09:44:11;;;;;;;1.42;1.10;;;19.90;53.70;;;;;;6290419;28;20052;-78
2024/03/16 09:47:16;;;;;;;1.90;0.80;;;20.10;53.30;;;;;;6290715;28;20024;-77
2024/03/16 09:50:17;;;;;;;1.65;1.02;;;20.30;52.60;;;;;;6308323;28;20028;-77
2024/03/16 09:53:33;;;;;;;2.70;0.80;;;20.30;52.10;;;;;;6289876;28;20153;-77
2024/03/16 09:56:39;;;;;;;5.10;0.90;;;20.30;51.40;;;;;;6307045;28;20417;-77
2024/03/16 09:59:48;;;;;;;1.05;0.68;;;20.40;50.60;;;;;;6309103;28;20119;-78
2024/03/16 10:02:50;;;;;;;2.53;0.68;;;20.50;50.00;;;;;;6286402;28;20038;-77
2024/03/16 10:05:53;;;;;;;4.05;1.30;;;20.60;49.50;;;;;;6306809;28;20028;-78
2024/03/16 10:09:15;;;;;;;1.65;0.73;;;20.70;49.10;;;;;;6307237;28;20122;-79
2024/03/16 10:12:16;;;;;;;2.97;0.70;;;20.80;49.10;;;;;;6289833;28;20020;-79
2024/03/16 10:15:19;;;;;;;1.23;0.55;;;20.90;48.70;;;;;;6306334;28;20373;-78
2024/03/16 10:18:20;;;;;;;2.47;1.13;;;20.90;48.80;;;;;;6308316;28;20107;-77
2024/03/16 10:21:27;;;;;;;2.35;0.88;;;21.00;48.30;;;;;;6304536;28;20028;-78
2024/03/16 10:24:29;;;;;;;3.88;0.80;;;21.00;48.00;;;;;;6308134;28;20551;-77
2024/03/16 10:27:31;;;;;;;2.00;1.00;;;21.00;47.10;;;;;;6307542;28;20061;-78
2024/03/16 10:30:35;;;;;;;1.42;0.80;;;20.90;47.10;;;;;;6306562;28;20441;-77
2024/03/16 10:33:41;;;;;;;1.40;0.90;;;20.80;47.10;;;;;;6289165;28;20020;-77
2024/03/16 10:36:42;;;;;;;3.08;1.23;;;20.80;47.40;;;;;;6305460;28;20059;-77
2024/03/16 10:39:45;;;;;;;3.17;1.15;;;20.80;47.60;;;;;;6307382;28;20040;-78
2024/03/16 10:42:48;;;;;;;2.05;1.15;;;20.80;47.20;;;;;;6306220;28;20506;-76
2024/03/16 10:45:50;;;;;;;6.35;1.38;;;20.80;46.90;;;;;;6305339;28;20024;-77
2024/03/16 10:48:52;;;;;;;1.67;0.75;;;20.90;47.10;;;;;;6305144;28;20123;-78
2024/03/16 10:51:55;;;;;;;2.17;0.68;;;20.90;46.10;;;;;;6302966;28;20038;-77
2024/03/16 10:54:56;;;;;;;2.47;0.80;;;21.00;46.20;;;;;;6302813;28;20004;-77
2024/03/16 10:58:02;;;;;;;1.30;0.80;;;21.00;45.40;;;;;;6305821;28;20483;-77
2024/03/16 11:01:08;;;;;;;3.33;0.63;;;21.00;45.00;;;;;;6272807;28;20101;-77
2024/03/16 11:04:13;;;;;;;4.90;0.80;;;21.10;44.60;;;;;;6305109;28;20164;-77
2024/03/16 11:07:14;;;;;;;6.82;0.63;;;21.10;44.40;;;;;;6305668;28;20020;-78
2024/03/16 11:10:38;;;;;;;0.68;0.50;;;21.10;44.20;;;;;;6289156;28;20127;-77
2024/03/16 11:13:59;;;;;;;5.90;0.65;;;21.20;44.30;;;;;;6305396;28;20027;-77
2024/03/16 11:17:00;;;;;;;2.53;0.52;;;21.30;44.10;;;;;;6304102;28;20028;-78
2024/03/16 11:20:37;;;;;;;1.08;0.50;;;21.50;43.90;;;;;;6309778;28;20483;-78
2024/03/16 11:23:42;;;;;;;1.75;0.70;;;21.70;42.90;;;;;;6292929;28;20052;-76
2024/03/16 11:26:44;;;;;;;0.70;0.32;;;22.00;42.00;;;;;;6310109;28;20089;-77
2024/03/16 11:29:58;;;;;;;2.38;0.65;;;22.50;41.10;;;;;;6292524;28;20131;-78
2024/03/16 11:33:15;;;;;;;3.25;1.10;;;23.00;40.10;;;;;;6309032;28;20024;-78
2024/03/16 11:36:16;;;;;;;1.70;0.70;;;23.40;39.00;;;;;;6302284;28;20031;-78
2024/03/16 11:39:27;;;;;;;1.75;0.70;;;23.50;38.30;;;;;;6312001;28;20047;-77
2024/03/16 11:42:29;;;;;;;2.20;0.35;;;23.60;38.10;;;;;;6295123;28;20559;-78
2024/03/16 11:45:33;;;;;;;1.98;0.68;;;23.80;37.50;;;;;;6309682;28;20096;-76
2024/03/16 11:48:39;;;;;;;6.15;0.80;;;24.10;37.30;;;;;;6309948;28;20024;-77
2024/03/16 11:51:41;;;;;;;3.08;0.70;;;24.20;37.10;;;;;;6293379;28;20028;-79
2024/03/16 11:54:49;;;;;;;2.15;0.68;;;24.50;36.50;;;;;;6307938;28;20020;-78
2024/03/16 11:57:52;;;;;;;1.73;0.80;;;24.90;35.60;;;;;;6284877;28;20099;-76
2024/03/16 12:00:54;;;;;;;4.15;0.93;;;25.10;34.50;;;;;;6306192;28;20147;-78
2024/03/16 12:03:58;;;;;;;5.65;0.68;;;25.10;33.30;;;;;;6309199;28;20050;-77
2024/03/16 12:06:59;;;;;;;4.90;0.90;;;24.70;33.30;;;;;;6309012;28;20032;-78
2024/03/16 12:10:03;;;;;;;7.32;0.77;;;24.60;33.90;;;;;;6309341;28;20516;-77
2024/03/16 12:13:07;;;;;;;1.52;0.40;;;24.90;33.60;;;;;;6291001;28;20019;-77
2024/03/16 12:17:00;;;;;;;3.75;0.68;;;25.20;33.10;;;;;;6308319;28;20040;-78
2024/03/16 12:20:05;;;;;;;1.90;0.52;;;25.30;32.80;;;;;;6277268;28;20052;-77
2024/03/16 12:23:09;;;;;;;4.75;0.95;;;24.90;33.40;;;;;;6291343;28;20020;-78
2024/03/16 12:26:11;;;;;;;2.53;0.80;;;24.30;34.90;;;;;;6307622;28;20131;-77
2024/03/16 12:29:17;;;;;;;3.05;1.23;;;23.60;36.60;;;;;;6285426;28;20109;-78
2024/03/16 12:32:18;;;;;;;6.88;1.13;;;22.90;37.90;;;;;;6308497;28;20039;-78
2024/03/16 12:35:19;;;;;;;1.67;1.15;;;23.00;38.80;;;;;;6307799;28;20065;-77
2024/03/16 12:38:20;;;;;;;6.22;1.10;;;23.30;38.40;;;;;;6310214;28;20054;-78
2024/03/16 12:41:21;;;;;;;8.32;1.13;;;23.80;37.50;;;;;;6308677;28;20462;-76
2024/03/16 12:44:22;;;;;;;2.50;1.00;;;24.60;36.30;;;;;;6308768;28;20050;-77
2024/03/16 12:47:23;;;;;;;1.77;0.68;;;25.10;35.20;;;;;;6290708;28;20446;-78
2024/03/16 12:50:26;;;;;;;1.40;0.63;;;25.70;34.60;;;;;;6307767;28;20032;-77
2024/03/16 12:53:28;;;;;;;2.80;1.02;;;26.60;33.50;;;;;;6305615;28;20024;-78
2024/03/16 12:56:29;;;;;;;3.30;0.82;;;27.40;31.90;;;;;;6304615;28;20084;-78
2024/03/16 12:59:39;;;;;;;2.38;1.02;;;28.00;30.60;;;;;;6294612;28;20035;-76
2024/03/16 13:02:40;;;;;;;1.75;0.90;;;28.40;30.10;;;;;;6307247;28;20103;-77
2024/03/16 13:05:45;;;;;;;4.05;0.93;;;28.30;29.80;;;;;;6290611;28;20030;-79
2024/03/16 13:08:46;;;;;;;2.30;0.80;;;27.70;30.10;;;;;;6290449;28;20028;-77
2024/03/16 13:11:47;;;;;;;2.38;1.00;;;26.70;30.80;;;;;;6290067;28;20055;-77
2024/03/16 13:14:53;;;;;;;4.22;0.77;;;25.90;32.20;;;;;;6306523;28;20044;-77
2024/03/16 13:17:55;;;;;;;1.95;0.70;;;25.40;33.30;;;;;;6306710;28;20066;-78
2024/03/16 13:21:01;;;;;;;4.25;1.13;;;24.90;33.60;;;;;;6306135;28;20032;-78
2024/03/16 13:24:02;;;;;;;2.67;0.73;;;24.50;34.30;;;;;;6306567;28;20012;-77
2024/03/16 13:27:04;;;;;;;5.13;0.90;;;24.20;34.70;;;;;;6306888;28;20397;-80
2024/03/16 13:30:12;;;;;;;4.25;1.00;;;24.00;34.90;;;;;;6308192;28;20036;-79
2024/03/16 13:33:14;;;;;;;4.93;1.10;;;23.80;35.10;;;;;;6306870;28;20468;-78
2024/03/16 13:36:14;;;;;;;5.88;0.98;;;23.60;35.30;;;;;;6306907;28;20020;-78
2024/03/16 13:39:16;;;;;;;4.32;0.98;;;23.40;35.50;;;;;;6306770;28;20083;-77
2024/03/16 13:42:17;;;;;;;1.15;0.50;;;23.00;36.00;;;;;;6308112;28;20016;-76
2024/03/16 13:45:18;;;;;;;4.55;0.85;;;22.70;36.50;;;;;;6273259;28;20059;-79
2024/03/16 13:48:19;;;;;;;2.47;1.05;;;22.50;37.00;;;;;;6306974;28;20396;-77
2024/03/16 13:51:23;;;;;;;2.38;0.60;;;22.20;37.20;;;;;;6288504;28;20038;-76
2024/03/16 13:54:24;;;;;;;2.50;0.70;;;22.10;37.70;;;;;;6288493;28;20054;-77
2024/03/16 13:57:25;;;;;;;3.35;0.85;;;22.00;37.90;;;;;;6305228;28;20035;-78
2024/03/16 14:00:26;;;;;;;2.38;0.60;;;21.90;38.10;;;;;;6286671;28;20468;-77
2024/03/16 14:03:27;;;;;;;3.60;0.80;;;21.80;38.30;;;;;;6293564;28;20104;-76
2024/03/16 14:06:28;;;;;;;3.63;0.98;;;21.70;38.60;;;;;;6288380;28;20028;-77
2024/03/16 14:09:34;;;;;;;3.53;0.70;;;21.70;38.80;;;;;;6303267;28;20032;-76
2024/03/16 14:12:36;;;;;;;2.42;0.75;;;21.50;38.90;;;;;;6305821;28;20032;-78
2024/03/16 14:15:38;;;;;;;3.20;0.75;;;21.40;39.10;;;;;;6288955;28;20071;-77
2024/03/16 14:18:42;;;;;;;2.40;0.70;;;21.30;39.10;;;;;;6307802;28;20032;-78
2024/03/16 14:21:43;;;;;;;2.88;1.02;;;21.30;39.30;;;;;;6288837;28;20043;-78
2024/03/16 14:24:48;;;;;;;4.07;0.90;;;21.20;39.30;;;;;;6307285;28;20083;-78
2024/03/16 14:27:51;;;;;;;3.70;0.90;;;21.10;39.40;;;;;;6306110;28;20123;-79
2024/03/16 14:30:52;;;;;;;5.70;0.98;;;21.00;39.50;;;;;;6305848;28;20092;-77
2024/03/16 14:33:53;;;;;;;1.98;0.60;;;21.00;39.50;;;;;;6306108;28;20016;-76
2024/03/16 14:36:54;;;;;;;3.60;0.55;;;20.90;39.60;;;;;;6307503;28;20057;-79
2024/03/16 14:39:56;;;;;;;2.47;0.77;;;20.90;39.60;;;;;;6305694;28;20076;-77
2024/03/16 14:42:57;;;;;;;1.65;0.60;;;20.90;39.70;;;;;;6288611;28;20219;-78
2024/03/16 14:45:59;;;;;;;1.52;0.63;;;20.90;39.70;;;;;;6305428;28;20143;-79
2024/03/16 14:49:00;;;;;;;1.08;0.57;;;20.80;39.70;;;;;;6305191;28;20169;-78
2024/03/16 14:52:02;;;;;;;0.85;0.28;;;20.90;39.80;;;;;;6302189;28;20035;-77
2024/03/16 14:55:09;;;;;;;0.85;0.45;;;20.90;39.80;;;;;;6311302;28;20035;-78
2024/03/16 14:58:11;;;;;;;3.33;0.60;;;20.90;39.70;;;;;;6307719;28;20099;-78
2024/03/16 15:01:13;;;;;;;3.00;0.85;;;21.00;39.60;;;;;;6291067;28;20031;-77
2024/03/16 15:04:13;;;;;;;4.65;0.50;;;21.00;39.60;;;;;;6294485;28;20132;-78
2024/03/16 15:07:14;;;;;;;2.78;0.80;;;21.00;39.50;;;;;;6312769;28;20073;-78
2024/03/16 15:10:16;;;;;;;2.42;0.82;;;21.00;39.40;;;;;;6293430;28;20076;-78
2024/03/16 15:13:17;;;;;;;3.80;0.70;;;21.00;39.30;;;;;;6293717;28;20112;-78
2024/03/16 15:16:18;;;;;;;1.80;0.60;;;21.00;39.30;;;;;;6312718;28;20035;-79
2024/03/16 15:19:19;;;;;;;3.70;1.10;;;21.00;39.00;;;;;;6310865;28;20028;-78
2024/03/16 15:22:21;;;;;;;2.65;0.70;;;20.90;38.80;;;;;;6293417;28;20378;-78
2024/03/16 15:25:28;;;;;;;4.07;0.70;;;20.90;38.70;;;;;;6293526;28;21430;-78
2024/03/16 15:28:36;;;;;;;1.67;0.60;;;20.80;38.50;;;;;;6311408;28;20166;-78
2024/03/16 15:31:39;;;;;;;3.28;0.70;;;20.70;38.30;;;;;;6309550;28;20028;-79
2024/03/16 15:34:41;;;;;;;0.50;0.50;;;20.70;38.40;;;;;;6309765;28;20046;-78
2024/03/16 15:37:42;;;;;;;6.35;0.80;;;20.60;38.40;;;;;;6290316;28;20024;-78
2024/03/16 15:40:44;;;;;;;4.95;1.15;;;20.50;38.50;;;;;;6310193;28;20138;-78
2024/03/16 15:43:46;;;;;;;0.75;0.47;;;20.50;38.50;;;;;;6311299;28;20020;-78
2024/03/16 15:46:48;;;;;;;2.65;0.73;;;20.50;38.50;;;;;;6292671;28;20016;-77
2024/03/16 15:49:50;;;;;;;5.40;0.93;;;20.50;38.60;;;;;;6308995;28;20134;-78